GMFF/FEZ METAR and TAF weather

Enter ICAO airport designator
Station Type Date Time Source
GMFF METAR 2021/10/20 07:30 UTC NOAA

GMFF 200730Z 16002KT CAVOK 16/03 Q1021 NOSIG


Station Type Date Time Source
GMFF Decoded METAR 2021/10/20 07:30 UTC NOAA

Fes-Sais, Morocco (GMFF) 33-56N 004-59W 579M
Oct 20, 2021 - 03:30 AM EDT / 2021.10.20 0730 UTC
Wind: from the SSE (160 degrees) at 2 MPH (2 KT):0
Visibility: greater than 7 mile(s):0
Temperature: 60 F (16 C)
Dew Point: 37 F (3 C)
Relative Humidity: 41%
Pressure (altimeter): 30.15 in. Hg (1021 hPa)
ob: GMFF 200730Z 16002KT CAVOK 16/03 Q1021 NOSIG
cycle: 7

Station Type Date Time Source
GMFF TAF 2021/10/20 06:21 UTC NOAA

TAF TAF GMFF 200500Z 2006/2112 20006KT CAVOK
BECMG 2012/2014 06012KT

Example: see airport list